Nearby METAR Reports

 

KHFD - Hartford/Brainar, Connecticut, USA
Distance from station: ESE 5mi, 8km
Updated: Sun, 16-Jun-2019 5:53am EDT
Overcast
Overcast
 Wind from S
Wind: S 6 mph , 9 km/h
Temperature: 64°F , 18°C
Dew Point: 63°F , 17°C
Humidity: 94%
Barometer: 29.91 inHg , 1012.9 hPa
Clouds: Overcast
Visibility: 10 miles , 16 km
Cloud details: Overcast 7000 ft
2019/06/16 09:53 KHFD 160953Z 18005KT 10SM OVC070 18/17 A2991 RMK AO2 RAB24E35 SLP128 P0000 T01780167
KBDL - Windsor Locks, Connecticut, USA
Distance from station: NNE 12mi, 20km
Updated: Sun, 16-Jun-2019 5:51am EDT
Light rain, Overcast
Light rain, Overcast
 Wind from S
Wind: S 8 mph , 13 km/h
Temperature: 64°F , 18°C
Dew Point: 61°F , 16°C
Humidity: 88%
Barometer: 29.90 inHg , 1012.5 hPa
Summary: Light rain
Clouds: Overcast
Visibility: 10 miles , 16 km
Cloud details: Mostly cloudy 7000 ft
Overcast 9000 ft
2019/06/16 09:51 KBDL 160951Z 18007KT 10SM -RA BKN070 OVC090 18/16 A2990 RMK AO2 RAB21 SLP123 PCPN VRY LGT P0000 T01780161 $
 
KMMK - Meriden, Connecticut, USA
Distance from station: SSW 18mi, 28km
Updated: Sun, 16-Jun-2019 5:53am EDT
Mostly cloudy
Mostly cloudy
 Wind from SE
Wind: SE 3 mph , 6 km/h
Temperature: 63°F , 17°C
Dew Point: 61°F , 16°C
Humidity: 94%
Barometer: 29.92 inHg , 1013.2 hPa
Clouds: Mostly cloudy
Visibility: 10 miles , 16 km
Cloud details: Partly cloudy 7500 ft
Partly cloudy 9000 ft
Mostly cloudy 11000 ft
2019/06/16 09:53 KMMK 160953Z AUTO 14003KT 10SM SCT075 SCT090 BKN110 17/16 A2992 RMK AO2 RAE13B38E49 SLP131 P0000 T01720161
KBAF - Westfield, Massachusetts, USA
Distance from station: N 28mi, 45km
Updated: Sun, 16-Jun-2019 5:53am EDT
Overcast
Overcast
 Wind from S
Wind: S 5 mph , 7 km/h
Temperature: 63°F , 17°C
Dew Point: 61°F , 16°C
Humidity: 94%
Barometer: 29.89 inHg , 1012.2 hPa
Clouds: Overcast
Visibility: 10 miles , 16 km
Cloud details: Partly cloudy 7000 ft
Overcast 10000 ft
2019/06/16 09:53 KBAF 160953Z AUTO 17004KT 10SM SCT070 OVC100 17/16 A2989 RMK AO2 RAE0854 SLP121 P0000 T01670156
 
KIJD - Willimantic, Connecticut, USA
Distance from station: E 29mi, 46km
Updated: Sun, 16-Jun-2019 5:52am EDT
Overcast
Overcast
 Wind from calm
Wind: Calm
Temperature: 64°F , 18°C
Dew Point: 61°F , 16°C
Humidity: 88%
Barometer: 29.93 inHg , 1013.5 hPa
Clouds: Overcast
Visibility: 10 miles , 16 km
Cloud details: Few Clouds 5500 ft
Overcast 8000 ft
2019/06/16 09:52 KIJD 160952Z AUTO 00000KT 10SM FEW055 OVC080 18/16 A2993 RMK AO2 RAE00B37E51 SLP132 P0000 T01780161
KOXC - Oxford/Waterbury, Connecticut, USA
Distance from station: SW 29mi, 46km
Updated: Sun, 16-Jun-2019 5:51am EDT
Overcast
Overcast
 Wind from calm
Wind: Calm
Temperature: 63°F , 17°C
Dew Point: 61°F , 16°C
Humidity: 94%
Barometer: 29.94 inHg , 1013.9 hPa
Clouds: Overcast
Visibility: 10 miles , 16 km
Cloud details: Mostly cloudy 8000 ft
Overcast 9000 ft
2019/06/16 09:51 KOXC 160951Z AUTO 00000KT 10SM BKN080 OVC090 17/16 A2994 RMK AO2 RAE0857 SLP146 P0002 T01670156
 
KSNC - Chester, Connecticut, USA
Distance from station: SSE 29mi, 47km
Updated: Sun, 16-Jun-2019 6:35am EDT
Light rain, Few clouds
Light rain, Few clouds
 Wind from SSW
Wind: SSW 7 mph , 11 km/h
Temperature: 63°F , 17°C
Dew Point: 63°F , 17°C
Humidity: 100%
Barometer: 29.95 inHg , 1014.2 hPa
Summary: Light rain
Clouds: Few Clouds
Visibility: 5 miles , 8 km
Cloud details: Few Clouds 200 ft
Few Clouds 4600 ft
Few Clouds 7500 ft
2019/06/16 10:35 KSNC 161035Z AUTO 20006KT 5SM -RA FEW002 FEW046 FEW075 17/17 A2995 RMK AO2
KCEF - Chicopee/Westove, Massachusetts, USA
Distance from station: NNE 32mi, 52km
Updated: Sun, 16-Jun-2019 6:13am EDT
Mostly cloudy
Mostly cloudy
 Wind from S
Wind: S 7 mph , 11 km/h
Temperature: 63°F , 17°C
Dew Point: 61°F , 16°C
Humidity: 94%
Barometer: 29.89 inHg , 1012.2 hPa
Clouds: Mostly cloudy
Visibility: 10 miles , 16 km
Cloud details: Few Clouds 1500 ft
Mostly cloudy 6000 ft
2019/06/16 10:13 KCEF 161013Z 17006KT 10SM FEW015 BKN060 17/16 A2989 RMK AO2A SLP126
 
KHVN - New Haven/Tweed, Connecticut, USA
Distance from station: S 35mi, 56km
Updated: Sun, 16-Jun-2019 5:53am EDT
Overcast
Overcast
 Wind from S
Wind: S 5 mph , 7 km/h
Temperature: 66°F , 19°C
Dew Point: 63°F , 17°C
Humidity: 88%
Barometer: 29.93 inHg , 1013.5 hPa
Clouds: Overcast
Visibility: 7 miles , 11 km
Cloud details: Overcast 8500 ft
2019/06/16 09:53 KHVN 160953Z 18004KT 7SM OVC085 19/17 A2993 RMK AO2 RAE0857 SLP135 P0001 T01890167
KBDR - Bridgeport, Connecticut, USA
Distance from station: SSW 46mi, 74km
Updated: Sun, 16-Jun-2019 5:52am EDT
Overcast
Overcast
 Wind from S
Wind: S 12 mph , 19 km/h
Temperature: 66°F , 19°C
Dew Point: 61°F , 16°C
Humidity: 83%
Barometer: 29.92 inHg , 1013.2 hPa
Clouds: Overcast
Visibility: 10 miles , 16 km
Cloud details: Overcast 10000 ft
2019/06/16 09:52 KBDR 160952Z AUTO 19010KT 10SM OVC100 19/16 A2992 RMK AO2 RAE07 SLP133 P0000 T01890161
 
KGON - Groton/New Londo, Connecticut, USA
Distance from station: SE 46mi, 75km
Updated: Sun, 16-Jun-2019 5:56am EDT
Overcast
Overcast
 Wind from calm
Wind: Calm
Temperature: 64°F , 18°C
Dew Point: 61°F , 16°C
Humidity: 88%
Barometer: 29.93 inHg , 1013.5 hPa
Clouds: Overcast
Visibility: 10 miles , 16 km
Cloud details: Overcast 8000 ft
2019/06/16 09:56 KGON 160956Z AUTO 00000KT 10SM OVC080 18/16 A2993 RMK AO2 RAE51 SLP135 P0001 T01830156
KDXR - Danbury, Connecticut, USA
Distance from station: SW 47mi, 76km
Updated: Sun, 16-Jun-2019 5:53am EDT
Mostly cloudy
Mostly cloudy
 Wind from calm
Wind: Calm
Temperature: 63°F , 17°C
Dew Point: 59°F , 15°C
Humidity: 88%
Barometer: 29.93 inHg , 1013.5 hPa
Clouds: Mostly cloudy
Visibility: 10 miles , 16 km
Cloud details: Partly cloudy 7000 ft
Mostly cloudy 9000 ft
2019/06/16 09:53 KDXR 160953Z AUTO 00000KT 10SM SCT070 BKN090 17/15 A2993 RMK AO2 RAB25E42 SLP133 P0001 T01720150
 
KPSF - Pittsfield, Massachusetts, USA
Distance from station: NNW 54mi, 87km
Updated: Sun, 16-Jun-2019 5:54am EDT
Light rain, Overcast
Light rain, Overcast
 Wind from NNE
Wind: NNE 3 mph , 6 km/h
Temperature: 61°F , 16°C
Dew Point: 59°F , 15°C
Humidity: 94%
Barometer: 29.89 inHg , 1012.2 hPa
Summary: Light rain
Clouds: Overcast
Visibility: 10 miles , 16 km
Cloud details: Few Clouds 900 ft
Partly cloudy 1200 ft
Overcast 3700 ft
2019/06/16 09:54 KPSF 160954Z AUTO 02003KT 10SM -RA FEW009 SCT012 OVC037 16/15 A2989 RMK AO2 RAB06E23B45 SLP098 P0001 T01610150
KWST - Westerly, Rhode Island, USA
Distance from station: ESE 56mi, 91km
Updated: Sun, 16-Jun-2019 5:53am EDT
Light rain, Overcast
Light rain, Overcast
 Wind from calm
Wind: Calm
Temperature: 64°F , 18°C
Dew Point: 63°F , 17°C
Humidity: 94%
Barometer: 29.95 inHg , 1014.2 hPa
Summary: Light rain
Clouds: Overcast
Visibility: 9 miles , 14 km
Cloud details: Overcast 7000 ft
2019/06/16 09:53 KWST 160953Z AUTO 00000KT 9SM -RA OVC070 18/17 A2995 RMK AO2 RAE02B43 SLP140 P0000 T01780172
 
KORH - Worcester, Massachusetts, USA
Distance from station: NE 57mi, 92km
Updated: Sun, 16-Jun-2019 5:54am EDT
Mostly cloudy
Mostly cloudy
 Wind from WSW
Wind: WSW 13 mph , 20 km/h
Temperature: 61°F , 16°C
Dew Point: 59°F , 15°C
Humidity: 94%
Barometer: 29.92 inHg , 1013.2 hPa
Clouds: Mostly cloudy
Visibility: 10 miles , 16 km
Cloud details: Mostly cloudy 11000 ft
2019/06/16 09:54 KORH 160954Z 24011KT 10SM BKN110 16/15 A2992 RMK AO2 SLP127 T01560150
KPOU - Poughkeepsie, New York, USA
Distance from station: W 60mi, 96km
Updated: Sun, 16-Jun-2019 5:53am EDT
Overcast
Overcast
 Wind from calm
Wind: Calm
Temperature: 64°F , 18°C
Dew Point: 61°F , 16°C
Humidity: 88%
Barometer: 29.88 inHg , 1011.9 hPa
Clouds: Overcast
Visibility: 10 miles , 16 km
Cloud details: Overcast 7000 ft
2019/06/16 09:53 KPOU 160953Z 00000KT 10SM OVC070 18/16 A2988 RMK AO2 SLP115 T01780161
 
KORE - Orange, Massachusetts, USA
Distance from station: NNE 60mi, 97km
Updated: Sun, 16-Jun-2019 5:52am EDT
Overcast
Overcast
 Wind from SSE
Wind: SSE 3 mph , 6 km/h
Temperature: 63°F , 17°C
Dew Point: 61°F , 16°C
Humidity: 94%
Barometer: 29.91 inHg , 1012.9 hPa
Clouds: Overcast
Visibility: 10 miles , 16 km
Cloud details: Mostly cloudy 1200 ft
Overcast 2100 ft
2019/06/16 09:52 KORE 160952Z AUTO 15003KT 10SM BKN012 OVC021 17/16 A2991 RMK AO2 SLP125 T01720156
KHTO - East Hampton, New York, USA
Distance from station: SSE 62mi, 99km
Updated: Sun, 16-Jun-2019 6:35am EDT
Overcast
Overcast
 Wind from SW
Wind: SW 9 mph , 15 km/h
Temperature: 63°F , 17°C
Dew Point: 61°F , 16°C
Humidity: 94%
Barometer: 29.95 inHg , 1014.2 hPa
Clouds: Overcast
Visibility: 7 miles , 11 km
Cloud details: Partly cloudy 800 ft
Mostly cloudy 9500 ft
Overcast 12000 ft
2019/06/16 10:35 KHTO 161035Z AUTO 22008KT 7SM SCT008 BKN095 OVC120 17/16 A2995 RMK AO2 T01720162
 
KFOK - Westhampton Beac, New York, USA
Distance from station: S 63mi, 102km
Updated: Sun, 16-Jun-2019 6:26am EDT
Mostly cloudy
Mostly cloudy
 Wind from SW
Wind: SW 9 mph , 15 km/h
Temperature: 64°F , 18°C
Dew Point: 63°F , 17°C
Humidity: 94%
Barometer: 29.96 inHg , 1014.6 hPa
Clouds: Mostly cloudy
Visibility: 10 miles , 16 km
Cloud details: Few Clouds 700 ft
Mostly cloudy 11000 ft
2019/06/16 10:26 KFOK 161026Z AUTO 22008KT 10SM FEW007 BKN110 18/17 A2996 RMK AO2 RAE15 P0000 T01830172
KMTP - Montauk, New York, USA
Distance from station: SE 64mi, 104km
Updated: Sun, 16-Jun-2019 5:54am EDT

 Wind from SW
Wind: SW 7 mph , 11 km/h
Temperature: 64°F , 18°C
Dew Point: 61°F , 16°C
Humidity: 88%
Barometer: 29.97 inHg , 1014.9 hPa
2019/06/16 09:54 KMTP 160954Z AUTO 22006KT 18/16 A2997 RMK AO1 SLP147 T01780161